sensor_id;sensor_type;location;lat;lon;timestamp;temperature;humidity
15184;DHT22;7693;49.266;7.104;2022-11-15T06:07:04;11.10;99.90
15184;DHT22;7693;49.266;7.104;2022-11-15T06:09:30;11.10;99.90
15184;DHT22;7693;49.266;7.104;2022-11-15T06:11:56;11.10;99.90
15184;DHT22;7693;49.266;7.104;2022-11-15T06:14:21;11.10;99.90
15184;DHT22;7693;49.266;7.104;2022-11-15T06:16:47;11.10;99.90
15184;DHT22;7693;49.266;7.104;2022-11-15T06:19:15;11.20;99.90
15184;DHT22;7693;49.266;7.104;2022-11-15T06:21:41;11.20;99.90
15184;DHT22;7693;49.266;7.104;2022-11-15T06:24:06;11.30;99.90
15184;DHT22;7693;49.266;7.104;2022-11-15T06:26:32;11.30;99.90
15184;DHT22;7693;49.266;7.104;2022-11-15T06:28:58;11.30;99.90
15184;DHT22;7693;49.266;7.104;2022-11-15T06:31:23;11.30;99.90
15184;DHT22;7693;49.266;7.104;2022-11-15T06:33:49;11.30;99.90
15184;DHT22;7693;49.266;7.104;2022-11-15T06:36:15;11.30;99.90
15184;DHT22;7693;49.266;7.104;2022-11-15T06:38:45;11.30;99.90
15184;DHT22;7693;49.266;7.104;2022-11-15T06:41:11;11.20;99.90
15184;DHT22;7693;49.266;7.104;2022-11-15T06:43:37;11.20;99.90
15184;DHT22;7693;49.266;7.104;2022-11-15T06:46:04;11.20;99.90
15184;DHT22;7693;49.266;7.104;2022-11-15T06:48:31;11.20;99.90
15184;DHT22;7693;49.266;7.104;2022-11-15T06:50:59;11.20;99.90
15184;DHT22;7693;49.266;7.104;2022-11-15T06:53:25;11.20;99.90
15184;DHT22;7693;49.266;7.104;2022-11-15T06:55:51;11.20;99.90
15184;DHT22;7693;49.266;7.104;2022-11-15T06:58:17;11.20;99.90
15184;DHT22;7693;49.266;7.104;2022-11-15T07:00:43;11.20;99.90
15184;DHT22;7693;49.266;7.104;2022-11-15T07:03:09;11.20;99.90
15184;DHT22;7693;49.266;7.104;2022-11-15T07:05:35;11.20;99.90
15184;DHT22;7693;49.266;7.104;2022-11-15T07:08:01;11.20;99.90
15184;DHT22;7693;49.266;7.104;2022-11-15T07:10:27;11.20;99.90
15184;DHT22;7693;49.266;7.104;2022-11-15T07:12:53;11.20;99.90
15184;DHT22;7693;49.266;7.104;2022-11-15T07:15:22;11.20;99.90
15184;DHT22;7693;49.266;7.104;2022-11-15T07:17:48;11.30;99.90
15184;DHT22;7693;49.266;7.104;2022-11-15T07:20:14;11.30;99.90
15184;DHT22;7693;49.266;7.104;2022-11-15T07:22:41;11.30;99.90
15184;DHT22;7693;49.266;7.104;2022-11-15T07:25:07;11.30;99.90
15184;DHT22;7693;49.266;7.104;2022-11-15T07:27:33;11.30;99.90
15184;DHT22;7693;49.266;7.104;2022-11-15T07:29:59;11.30;99.90
15184;DHT22;7693;49.266;7.104;2022-11-15T07:32:24;11.30;99.90
15184;DHT22;7693;49.266;7.104;2022-11-15T07:34:50;11.30;99.90
15184;DHT22;7693;49.266;7.104;2022-11-15T07:37:16;11.30;99.90
15184;DHT22;7693;49.266;7.104;2022-11-15T07:39:42;11.30;99.90
15184;DHT22;7693;49.266;7.104;2022-11-15T07:42:08;11.30;99.90
15184;DHT22;7693;49.266;7.104;2022-11-15T07:44:52;11.30;99.90
15184;DHT22;7693;49.266;7.104;2022-11-15T07:47:17;11.40;99.90
15184;DHT22;7693;49.266;7.104;2022-11-15T07:49:43;11.40;99.90
15184;DHT22;7693;49.266;7.104;2022-11-15T07:52:08;11.40;99.90
15184;DHT22;7693;49.266;7.104;2022-11-15T07:54:34;11.40;99.90
15184;DHT22;7693;49.266;7.104;2022-11-15T07:57:00;11.40;99.90
15184;DHT22;7693;49.266;7.104;2022-11-15T07:59:25;11.40;99.90
15184;DHT22;7693;49.266;7.104;2022-11-15T08:01:51;11.40;99.90
15184;DHT22;7693;49.266;7.104;2022-11-15T08:04:16;11.40;99.90
15184;DHT22;7693;49.266;7.104;2022-11-15T08:06:42;11.40;99.90
15184;DHT22;7693;49.266;7.104;2022-11-15T08:09:07;11.40;99.90
15184;DHT22;7693;49.266;7.104;2022-11-15T08:11:33;11.40;99.90
15184;DHT22;7693;49.266;7.104;2022-11-15T08:13:58;11.40;99.90
15184;DHT22;7693;49.266;7.104;2022-11-15T08:16:24;11.50;99.90
15184;DHT22;7693;49.266;7.104;2022-11-15T08:18:50;11.50;99.90
15184;DHT22;7693;49.266;7.104;2022-11-15T08:21:19;11.50;99.90
15184;DHT22;7693;49.266;7.104;2022-11-15T08:23:45;11.50;99.90
15184;DHT22;7693;49.266;7.104;2022-11-15T08:26:11;11.50;99.90
15184;DHT22;7693;49.266;7.104;2022-11-15T08:28:36;11.50;99.90
15184;DHT22;7693;49.266;7.104;2022-11-15T08:31:03;11.50;99.90
15184;DHT22;7693;49.266;7.104;2022-11-15T08:33:29;11.50;99.90
15184;DHT22;7693;49.266;7.104;2022-11-15T08:35:59;11.60;99.90
15184;DHT22;7693;49.266;7.104;2022-11-15T08:38:25;11.60;99.90
15184;DHT22;7693;49.266;7.104;2022-11-15T08:40:52;11.60;99.90
15184;DHT22;7693;49.266;7.104;2022-11-15T08:43:18;11.60;99.90
15184;DHT22;7693;49.266;7.104;2022-11-15T08:45:44;11.70;99.90
15184;DHT22;7693;49.266;7.104;2022-11-15T08:48:10;11.70;99.90
15184;DHT22;7693;49.266;7.104;2022-11-15T08:50:35;11.70;99.90
15184;DHT22;7693;49.266;7.104;2022-11-15T08:53:06;11.70;99.90
15184;DHT22;7693;49.266;7.104;2022-11-15T08:55:32;11.80;99.90
15184;DHT22;7693;49.266;7.104;2022-11-15T08:57:57;11.80;99.90
15184;DHT22;7693;49.266;7.104;2022-11-15T09:00:23;11.80;99.90
15184;DHT22;7693;49.266;7.104;2022-11-15T09:02:49;11.80;99.90
15184;DHT22;7693;49.266;7.104;2022-11-15T09:05:14;11.90;99.90
15184;DHT22;7693;49.266;7.104;2022-11-15T09:07:44;11.90;99.90
15184;DHT22;7693;49.266;7.104;2022-11-15T09:10:09;11.90;99.90
15184;DHT22;7693;49.266;7.104;2022-11-15T09:12:35;12.00;99.90
15184;DHT22;7693;49.266;7.104;2022-11-15T09:15:01;12.00;99.90
15184;DHT22;7693;49.266;7.104;2022-11-15T09:17:26;12.00;99.90
15184;DHT22;7693;49.266;7.104;2022-11-15T09:19:52;12.10;99.90
15184;DHT22;7693;49.266;7.104;2022-11-15T09:22:17;12.10;99.90
15184;DHT22;7693;49.266;7.104;2022-11-15T09:24:43;12.10;99.90
15184;DHT22;7693;49.266;7.104;2022-11-15T09:27:09;12.10;99.90
15184;DHT22;7693;49.266;7.104;2022-11-15T09:29:34;12.10;99.90
15184;DHT22;7693;49.266;7.104;2022-11-15T09:32:00;12.10;99.90
15184;DHT22;7693;49.266;7.104;2022-11-15T09:34:26;12.10;99.90
15184;DHT22;7693;49.266;7.104;2022-11-15T09:36:51;12.20;99.90
15184;DHT22;7693;49.266;7.104;2022-11-15T09:39:17;12.20;99.90
15184;DHT22;7693;49.266;7.104;2022-11-15T09:42:20;12.30;99.90
15184;DHT22;7693;49.266;7.104;2022-11-15T09:45:04;12.30;99.90
15184;DHT22;7693;49.266;7.104;2022-11-15T09:53:11;12.50;99.90
15184;DHT22;7693;49.266;7.104;2022-11-15T09:55:47;12.50;99.90
15184;DHT22;7693;49.266;7.104;2022-11-15T09:59:19;12.60;99.90
15184;DHT22;7693;49.266;7.104;2022-11-15T10:04:36;12.70;99.90
15184;DHT22;7693;49.266;7.104;2022-11-15T10:10:37;12.70;99.90
15184;DHT22;7693;49.266;7.104;2022-11-15T10:13:04;12.70;99.90
15184;DHT22;7693;49.266;7.104;2022-11-15T10:15:30;12.70;99.90
15184;DHT22;7693;49.266;7.104;2022-11-15T10:18:09;12.80;99.90
15184;DHT22;7693;49.266;7.104;2022-11-15T10:20:48;12.80;99.90
15184;DHT22;7693;49.266;7.104;2022-11-15T10:23:18;12.90;99.90
15184;DHT22;7693;49.266;7.104;2022-11-15T10:25:44;12.90;99.90
15184;DHT22;7693;49.266;7.104;2022-11-15T10:28:14;13.00;99.90
15184;DHT22;7693;49.266;7.104;2022-11-15T10:30:46;13.00;99.90
15184;DHT22;7693;49.266;7.104;2022-11-15T10:46:43;13.10;99.90
15184;DHT22;7693;49.266;7.104;2022-11-15T10:49:26;13.10;99.90
15184;DHT22;7693;49.266;7.104;2022-11-15T10:52:15;13.20;99.90
15184;DHT22;7693;49.266;7.104;2022-11-15T10:54:48;13.30;99.90
15184;DHT22;7693;49.266;7.104;2022-11-15T10:57:19;13.30;99.90
15184;DHT22;7693;49.266;7.104;2022-11-15T13:45:22;14.10;99.90
15184;DHT22;7693;49.266;7.104;2022-11-15T13:47:56;14.20;99.90
15184;DHT22;7693;49.266;7.104;2022-11-15T13:50:26;14.10;99.90
15184;DHT22;7693;49.266;7.104;2022-11-15T13:52:57;14.10;99.90
15184;DHT22;7693;49.266;7.104;2022-11-15T13:55:25;14.10;99.90
15184;DHT22;7693;49.266;7.104;2022-11-15T13:57:59;14.10;99.90
15184;DHT22;7693;49.266;7.104;2022-11-15T14:02:54;14.10;99.90
15184;DHT22;7693;49.266;7.104;2022-11-15T14:05:22;14.00;99.90
15184;DHT22;7693;49.266;7.104;2022-11-15T14:10:31;14.00;99.90
15184;DHT22;7693;49.266;7.104;2022-11-15T14:12:58;14.00;99.90
15184;DHT22;7693;49.266;7.104;2022-11-15T14:17:52;14.10;99.90
15184;DHT22;7693;49.266;7.104;2022-11-15T14:20:33;14.00;99.90
15184;DHT22;7693;49.266;7.104;2022-11-15T14:23:46;14.00;99.90
15184;DHT22;7693;49.266;7.104;2022-11-15T14:25:54;14.10;99.90
15184;DHT22;7693;49.266;7.104;2022-11-15T14:30:48;14.10;99.90
15184;DHT22;7693;49.266;7.104;2022-11-15T14:33:35;14.10;99.90
15184;DHT22;7693;49.266;7.104;2022-11-15T14:36:13;14.10;99.90
15184;DHT22;7693;49.266;7.104;2022-11-15T14:38:39;14.10;99.90
15184;DHT22;7693;49.266;7.104;2022-11-15T14:41:05;14.00;99.90
15184;DHT22;7693;49.266;7.104;2022-11-15T14:43:31;14.00;99.90
15184;DHT22;7693;49.266;7.104;2022-11-15T14:45:57;14.00;99.90
15184;DHT22;7693;49.266;7.104;2022-11-15T14:48:22;14.00;99.90
15184;DHT22;7693;49.266;7.104;2022-11-15T14:50:48;14.00;99.90
15184;DHT22;7693;49.266;7.104;2022-11-15T16:09:19;13.00;99.90
15184;DHT22;7693;49.266;7.104;2022-11-15T16:12:05;13.10;99.90
15184;DHT22;7693;49.266;7.104;2022-11-15T16:14:31;13.10;99.90
15184;DHT22;7693;49.266;7.104;2022-11-15T16:16:57;13.00;99.90
15184;DHT22;7693;49.266;7.104;2022-11-15T16:19:22;13.10;99.90
15184;DHT22;7693;49.266;7.104;2022-11-15T16:21:48;13.10;99.90
15184;DHT22;7693;49.266;7.104;2022-11-15T16:24:14;13.10;99.90
15184;DHT22;7693;49.266;7.104;2022-11-15T16:26:40;13.10;99.90
15184;DHT22;7693;49.266;7.104;2022-11-15T16:29:05;13.10;99.90
15184;DHT22;7693;49.266;7.104;2022-11-15T16:31:32;13.10;99.90
15184;DHT22;7693;49.266;7.104;2022-11-15T16:33:57;13.10;99.90
15184;DHT22;7693;49.266;7.104;2022-11-15T16:36:25;13.10;99.90
15184;DHT22;7693;49.266;7.104;2022-11-15T16:38:51;13.10;99.90
15184;DHT22;7693;49.266;7.104;2022-11-15T16:41:17;13.10;99.90
15184;DHT22;7693;49.266;7.104;2022-11-15T16:43:47;13.10;99.90
15184;DHT22;7693;49.266;7.104;2022-11-15T16:46:18;13.10;99.90
15184;DHT22;7693;49.266;7.104;2022-11-15T16:48:44;13.10;99.90
15184;DHT22;7693;49.266;7.104;2022-11-15T16:51:10;13.00;99.90
15184;DHT22;7693;49.266;7.104;2022-11-15T16:53:36;13.10;99.90
15184;DHT22;7693;49.266;7.104;2022-11-15T16:56:02;13.00;99.90
15184;DHT22;7693;49.266;7.104;2022-11-15T16:58:27;13.00;99.90
15184;DHT22;7693;49.266;7.104;2022-11-15T17:00:54;13.00;99.90
15184;DHT22;7693;49.266;7.104;2022-11-15T18:59:28;12.40;99.90
15184;DHT22;7693;49.266;7.104;2022-11-15T19:01:54;12.40;99.90
15184;DHT22;7693;49.266;7.104;2022-11-15T19:04:21;12.40;99.90
15184;DHT22;7693;49.266;7.104;2022-11-15T19:06:48;12.40;99.90
15184;DHT22;7693;49.266;7.104;2022-11-15T19:09:16;12.40;99.90
15184;DHT22;7693;49.266;7.104;2022-11-15T19:11:43;12.40;99.90
15184;DHT22;7693;49.266;7.104;2022-11-15T19:14:11;12.40;99.90
15184;DHT22;7693;49.266;7.104;2022-11-15T19:16:39;12.40;99.90
15184;DHT22;7693;49.266;7.104;2022-11-15T19:19:09;12.40;99.90
15184;DHT22;7693;49.266;7.104;2022-11-15T19:21:35;12.40;99.90
15184;DHT22;7693;49.266;7.104;2022-11-15T19:24:00;12.50;99.90
15184;DHT22;7693;49.266;7.104;2022-11-15T19:26:27;12.50;99.90
15184;DHT22;7693;49.266;7.104;2022-11-15T19:28:54;12.50;99.90
15184;DHT22;7693;49.266;7.104;2022-11-15T19:31:21;12.50;99.90
15184;DHT22;7693;49.266;7.104;2022-11-15T19:33:48;12.50;99.90
15184;DHT22;7693;49.266;7.104;2022-11-15T19:36:15;12.50;99.90
15184;DHT22;7693;49.266;7.104;2022-11-15T19:38:41;12.50;99.90
15184;DHT22;7693;49.266;7.104;2022-11-15T19:41:11;12.50;99.90
15184;DHT22;7693;49.266;7.104;2022-11-15T19:43:37;12.50;99.90
15184;DHT22;7693;49.266;7.104;2022-11-15T19:46:04;12.50;99.90
15184;DHT22;7693;49.266;7.104;2022-11-15T19:48:31;12.50;99.90
15184;DHT22;7693;49.266;7.104;2022-11-15T19:51:15;12.50;99.90
15184;DHT22;7693;49.266;7.104;2022-11-15T19:53:40;12.50;99.90
15184;DHT22;7693;49.266;7.104;2022-11-15T19:56:11;12.50;99.90
15184;DHT22;7693;49.266;7.104;2022-11-15T19:58:38;12.50;99.90
15184;DHT22;7693;49.266;7.104;2022-11-15T20:01:13;12.60;99.90
15184;DHT22;7693;49.266;7.104;2022-11-15T20:03:40;12.60;99.90
15184;DHT22;7693;49.266;7.104;2022-11-15T20:06:08;12.60;99.90
15184;DHT22;7693;49.266;7.104;2022-11-15T20:08:34;12.60;99.90
15184;DHT22;7693;49.266;7.104;2022-11-15T20:11:01;12.60;99.90
15184;DHT22;7693;49.266;7.104;2022-11-15T20:13:27;12.60;99.90
15184;DHT22;7693;49.266;7.104;2022-11-15T20:15:53;12.60;99.90
15184;DHT22;7693;49.266;7.104;2022-11-15T20:18:20;12.60;99.90
15184;DHT22;7693;49.266;7.104;2022-11-15T20:20:46;12.60;99.90
15184;DHT22;7693;49.266;7.104;2022-11-15T20:23:12;12.60;99.90
15184;DHT22;7693;49.266;7.104;2022-11-15T20:25:38;12.60;99.90
15184;DHT22;7693;49.266;7.104;2022-11-15T20:28:05;12.60;99.90
15184;DHT22;7693;49.266;7.104;2022-11-15T20:30:31;12.60;99.90
15184;DHT22;7693;49.266;7.104;2022-11-15T20:32:57;12.60;99.90
15184;DHT22;7693;49.266;7.104;2022-11-15T20:35:23;12.60;99.90
15184;DHT22;7693;49.266;7.104;2022-11-15T20:37:48;12.60;99.90
15184;DHT22;7693;49.266;7.104;2022-11-15T20:40:14;12.60;99.90
15184;DHT22;7693;49.266;7.104;2022-11-15T20:42:39;12.50;99.90
15184;DHT22;7693;49.266;7.104;2022-11-15T20:45:05;12.50;99.90
15184;DHT22;7693;49.266;7.104;2022-11-15T20:47:31;12.50;99.90
15184;DHT22;7693;49.266;7.104;2022-11-15T20:49:57;12.50;99.90
15184;DHT22;7693;49.266;7.104;2022-11-15T20:52:23;12.50;99.90
15184;DHT22;7693;49.266;7.104;2022-11-15T20:54:48;12.50;99.90
15184;DHT22;7693;49.266;7.104;2022-11-15T20:57:14;12.50;99.90
15184;DHT22;7693;49.266;7.104;2022-11-15T20:59:39;12.50;99.90
15184;DHT22;7693;49.266;7.104;2022-11-15T21:02:05;12.50;99.90
15184;DHT22;7693;49.266;7.104;2022-11-15T21:04:31;12.50;99.90
15184;DHT22;7693;49.266;7.104;2022-11-15T21:06:56;12.50;99.90
15184;DHT22;7693;49.266;7.104;2022-11-15T21:09:23;12.40;99.90
15184;DHT22;7693;49.266;7.104;2022-11-15T21:12:12;12.40;99.90
15184;DHT22;7693;49.266;7.104;2022-11-15T21:14:39;12.40;99.90
15184;DHT22;7693;49.266;7.104;2022-11-15T21:17:05;12.40;99.90
15184;DHT22;7693;49.266;7.104;2022-11-15T21:19:30;12.40;99.90
15184;DHT22;7693;49.266;7.104;2022-11-15T21:21:56;12.40;99.90
15184;DHT22;7693;49.266;7.104;2022-11-15T21:24:21;12.40;99.90
15184;DHT22;7693;49.266;7.104;2022-11-15T21:26:49;12.40;99.90
15184;DHT22;7693;49.266;7.104;2022-11-15T21:29:15;12.40;99.90
15184;DHT22;7693;49.266;7.104;2022-11-15T21:31:48;12.40;99.90
15184;DHT22;7693;49.266;7.104;2022-11-15T21:34:14;12.40;99.90
15184;DHT22;7693;49.266;7.104;2022-11-15T21:36:40;12.40;99.90
15184;DHT22;7693;49.266;7.104;2022-11-15T21:39:06;12.40;99.90
15184;DHT22;7693;49.266;7.104;2022-11-15T21:41:32;12.40;99.90
15184;DHT22;7693;49.266;7.104;2022-11-15T21:44:02;12.40;99.90
15184;DHT22;7693;49.266;7.104;2022-11-15T21:46:29;12.40;99.90
15184;DHT22;7693;49.266;7.104;2022-11-15T21:48:55;12.40;99.90
15184;DHT22;7693;49.266;7.104;2022-11-15T21:51:21;12.40;99.90
15184;DHT22;7693;49.266;7.104;2022-11-15T21:53:47;12.40;99.90
15184;DHT22;7693;49.266;7.104;2022-11-15T21:56:13;12.40;99.90
15184;DHT22;7693;49.266;7.104;2022-11-15T21:58:39;12.40;99.90
15184;DHT22;7693;49.266;7.104;2022-11-15T22:01:05;12.40;99.90
15184;DHT22;7693;49.266;7.104;2022-11-15T22:03:50;12.40;99.90
15184;DHT22;7693;49.266;7.104;2022-11-15T22:06:16;12.30;99.90
15184;DHT22;7693;49.266;7.104;2022-11-15T22:08:42;12.30;99.90
15184;DHT22;7693;49.266;7.104;2022-11-15T22:11:08;12.30;99.90
15184;DHT22;7693;49.266;7.104;2022-11-15T22:13:33;12.30;99.90
15184;DHT22;7693;49.266;7.104;2022-11-15T22:15:59;12.30;99.90
15184;DHT22;7693;49.266;7.104;2022-11-15T22:18:25;12.30;99.90
15184;DHT22;7693;49.266;7.104;2022-11-15T22:21:14;12.20;99.90
15184;DHT22;7693;49.266;7.104;2022-11-15T22:23:40;12.20;99.90
15184;DHT22;7693;49.266;7.104;2022-11-15T22:26:07;12.20;99.90
15184;DHT22;7693;49.266;7.104;2022-11-15T22:28:34;12.20;99.90
15184;DHT22;7693;49.266;7.104;2022-11-15T22:31:00;12.20;99.90
15184;DHT22;7693;49.266;7.104;2022-11-15T22:33:27;12.10;99.90
15184;DHT22;7693;49.266;7.104;2022-11-15T22:35:53;12.10;99.90
15184;DHT22;7693;49.266;7.104;2022-11-15T22:38:19;12.10;99.90
15184;DHT22;7693;49.266;7.104;2022-11-15T22:40:46;12.10;99.90
15184;DHT22;7693;49.266;7.104;2022-11-15T22:43:13;12.00;99.90
15184;DHT22;7693;49.266;7.104;2022-11-15T22:45:59;12.00;99.90
15184;DHT22;7693;49.266;7.104;2022-11-15T22:48:30;12.00;99.90
15184;DHT22;7693;49.266;7.104;2022-11-15T22:50:56;11.90;99.90
15184;DHT22;7693;49.266;7.104;2022-11-15T22:53:23;11.90;99.90
15184;DHT22;7693;49.266;7.104;2022-11-15T22:55:51;11.90;99.90
15184;DHT22;7693;49.266;7.104;2022-11-15T22:58:17;11.90;99.90
15184;DHT22;7693;49.266;7.104;2022-11-15T23:00:43;11.90;99.90
